JAL7 KBOS-RJTT
Flight info
| Callsign | JAL7 |
|---|---|
| Flight time | N/A |
| Altitude | 34000 |
| Route | HYLND7 HYLND DCT YUL DCT ALKOK DCT 52N080W/N0502F360 5630N09000W 60N100W 6130N11000W 63N120W 63N130W/N0497F380 DCT EMSOW DCT ORT J124 GKN DCT TED DCT 61N160W DCT NOLTI/N0491F390 R220 NAYLD/N0496F380 DCT NATES/N0503F400 R220 NRKEY/N0492F410 R220 NANAC/N0488F400 Y810 AKRIT Y807 POLIX |
| Aircraft | B788/H-SDE1E2E3FGHIJ2J3J4J5M1RWXY/LB1D1 |
Departure
| Time | 2026-05-08 01:03 |
|---|---|
| Airport | Boston Logan International Airport (KBOS) |
Arrival
| Time | N/A |
|---|---|
| Airport | Tokyo Haneda International Airport (RJTT) |
| Time | Latitude | Longitude | Altitude | Speed | Heading |
|---|---|---|---|---|---|
| 2026-05-08 00:30 | 42.37088 | -71.02147 | 25 ft | 0 kts | 154° |
| 2026-05-08 00:46 | 42.37095 | -71.02151 | 24 ft | 4 kts | 149° |
| 2026-05-08 00:46 | 42.37115 | -71.02174 | 25 ft | 4 kts | 141° |
| 2026-05-08 00:46 | 42.37131 | -71.02194 | 29 ft | 3 kts | 122° |
| 2026-05-08 00:46 | 42.37134 | -71.02217 | 29 ft | 5 kts | 67° |
| 2026-05-08 00:47 | 42.37119 | -71.02245 | 29 ft | 5 kts | 52° |
| 2026-05-08 00:47 | 42.37114 | -71.02253 | 30 ft | 19 kts | 54° |
| 2026-05-08 00:52 | 42.37152 | -71.02198 | 27 ft | 16 kts | 45° |
| 2026-05-08 00:53 | 42.37250 | -71.02071 | 22 ft | 15 kts | 57° |
| 2026-05-08 00:53 | 42.37221 | -71.01935 | 26 ft | 20 kts | 133° |
| 2026-05-08 00:53 | 42.37134 | -71.01770 | 27 ft | 5 kts | 117° |
| 2026-05-08 00:53 | 42.37132 | -71.01765 | 27 ft | 0 kts | 120° |
| 2026-05-08 00:54 | 42.37131 | -71.01762 | 27 ft | 0 kts | 109° |
| 2026-05-08 00:54 | 42.37130 | -71.01757 | 29 ft | 2 kts | 85° |
| 2026-05-08 00:54 | 42.37150 | -71.01685 | 26 ft | 13 kts | 86° |
| 2026-05-08 00:54 | 42.37083 | -71.01535 | 23 ft | 23 kts | 135° |
| 2026-05-08 00:55 | 42.36975 | -71.01393 | 20 ft | 21 kts | 132° |
| 2026-05-08 00:55 | 42.36877 | -71.01263 | 19 ft | 21 kts | 135° |
| 2026-05-08 00:55 | 42.36805 | -71.01170 | 20 ft | 8 kts | 142° |
| 2026-05-08 00:55 | 42.36767 | -71.01144 | 23 ft | 5 kts | 165° |
| 2026-05-08 00:56 | 42.36712 | -71.01152 | 23 ft | 17 kts | 197° |
| 2026-05-08 00:56 | 42.36577 | -71.01216 | 22 ft | 25 kts | 200° |
| 2026-05-08 00:56 | 42.36440 | -71.01284 | 22 ft | 13 kts | 198° |
| 2026-05-08 00:56 | 42.36361 | -71.01310 | 22 ft | 10 kts | 174° |
| 2026-05-08 00:57 | 42.36315 | -71.01267 | 26 ft | 7 kts | 119° |
| 2026-05-08 00:57 | 42.36288 | -71.01206 | 28 ft | 9 kts | 121° |
| 2026-05-08 00:57 | 42.36244 | -71.01091 | 27 ft | 15 kts | 114° |
| 2026-05-08 00:57 | 42.36202 | -71.00960 | 27 ft | 18 kts | 113° |
| 2026-05-08 00:58 | 42.36141 | -71.00777 | 19 ft | 25 kts | 116° |
| 2026-05-08 00:58 | 42.36084 | -71.00572 | 22 ft | 21 kts | 109° |
| 2026-05-08 00:58 | 42.36039 | -71.00390 | 25 ft | 20 kts | 108° |
| 2026-05-08 00:58 | 42.36001 | -71.00237 | 27 ft | 16 kts | 110° |
| 2026-05-08 00:59 | 42.35959 | -71.00101 | 34 ft | 15 kts | 117° |
| 2026-05-08 00:59 | 42.35896 | -70.99987 | 27 ft | 13 kts | 151° |
| 2026-05-08 00:59 | 42.35844 | -70.99967 | 29 ft | 4 kts | 150° |
| 2026-05-08 00:59 | 42.35812 | -70.99914 | 27 ft | 15 kts | 123° |
| 2026-05-08 01:00 | 42.35723 | -70.99764 | 24 ft | 22 kts | 133° |
| 2026-05-08 01:00 | 42.35634 | -70.99643 | 21 ft | 16 kts | 135° |
| 2026-05-08 01:00 | 42.35555 | -70.99539 | 18 ft | 13 kts | 135° |
| 2026-05-08 01:00 | 42.35509 | -70.99472 | 19 ft | 8 kts | 124° |
| 2026-05-08 01:01 | 42.35490 | -70.99409 | 19 ft | 6 kts | 98° |
| 2026-05-08 01:01 | 42.35495 | -70.99371 | 19 ft | 0 kts | 73° |
| 2026-05-08 01:02 | 42.35499 | -70.99348 | 19 ft | 7 kts | 75° |
| 2026-05-08 01:02 | 42.35540 | -70.99298 | 19 ft | 11 kts | 6° |
| 2026-05-08 01:02 | 42.35598 | -70.99335 | 18 ft | 0 kts | 314° |
| 2026-05-08 01:03 | 42.35652 | -70.99411 | 20 ft | 38 kts | 315° |
| 2026-05-08 01:03 | 42.36005 | -70.99883 | 27 ft | 104 kts | 315° |
| 2026-05-08 01:03 | 42.36658 | -71.00770 | 87 ft | 156 kts | 314° |
| 2026-05-08 01:03 | 42.37433 | -71.01866 | 674 ft | 167 kts | 311° |
| 2026-05-08 01:04 | 42.38285 | -71.02990 | 1391 ft | 179 kts | 317° |
| 2026-05-08 01:04 | 42.39044 | -71.04283 | 2346 ft | 175 kts | 299° |
| 2026-05-08 01:04 | 42.39620 | -71.05770 | 3213 ft | 178 kts | 298° |
| 2026-05-08 01:04 | 42.40233 | -71.07315 | 3713 ft | 203 kts | 298° |
| 2026-05-08 01:05 | 42.40983 | -71.09084 | 4138 ft | 231 kts | 304° |
| 2026-05-08 01:05 | 42.42318 | -71.10429 | 4836 ft | 246 kts | 333° |
| 2026-05-08 01:05 | 42.43922 | -71.11344 | 5870 ft | 249 kts | 336° |
| 2026-05-08 01:05 | 42.45501 | -71.12176 | 6746 ft | 254 kts | 336° |
| 2026-05-08 01:06 | 42.47153 | -71.13062 | 7666 ft | 257 kts | 335° |
| 2026-05-08 01:06 | 42.48800 | -71.13968 | 8552 ft | 262 kts | 334° |
| 2026-05-08 01:06 | 42.50424 | -71.14863 | 9380 ft | 265 kts | 334° |
| 2026-05-08 01:06 | 42.52176 | -71.15698 | 10163 ft | 270 kts | 339° |
| 2026-05-08 01:07 | 42.53975 | -71.16505 | 10923 ft | 274 kts | 335° |
| 2026-05-08 01:07 | 42.55786 | -71.17368 | 11630 ft | 281 kts | 335° |
| 2026-05-08 01:07 | 42.57731 | -71.18273 | 11786 ft | 310 kts | 335° |
| 2026-05-08 01:07 | 42.59836 | -71.19216 | 12264 ft | 323 kts | 336° |
| 2026-05-08 01:08 | 42.61984 | -71.20173 | 13085 ft | 327 kts | 335° |
| 2026-05-08 01:08 | 42.64155 | -71.21166 | 13812 ft | 333 kts | 334° |
| 2026-05-08 01:08 | 42.66396 | -71.22202 | 14027 ft | 347 kts | 334° |
| 2026-05-08 01:08 | 42.68674 | -71.23235 | 14029 ft | 343 kts | 335° |
| 2026-05-08 01:09 | 42.70922 | -71.24247 | 14033 ft | 338 kts | 334° |
| 2026-05-08 01:09 | 42.73145 | -71.25264 | 14030 ft | 336 kts | 334° |
| 2026-05-08 01:09 | 42.75358 | -71.26282 | 14028 ft | 335 kts | 334° |
| 2026-05-08 01:09 | 42.77568 | -71.27313 | 14030 ft | 334 kts | 331° |
| 2026-05-08 01:10 | 42.79550 | -71.28840 | 14037 ft | 326 kts | 320° |
| 2026-05-08 01:10 | 42.81441 | -71.30539 | 14020 ft | 326 kts | 320° |
| 2026-05-08 01:10 | 42.83335 | -71.32240 | 14019 ft | 326 kts | 320° |
| 2026-05-08 01:10 | 42.85231 | -71.33943 | 14019 ft | 326 kts | 320° |
| 2026-05-08 01:11 | 42.87130 | -71.35652 | 14301 ft | 328 kts | 320° |
| 2026-05-08 01:11 | 42.89053 | -71.37385 | 14919 ft | 336 kts | 319° |
| 2026-05-08 01:11 | 42.91032 | -71.39174 | 15423 ft | 347 kts | 319° |
| 2026-05-08 01:11 | 42.93089 | -71.41033 | 15681 ft | 365 kts | 319° |
| 2026-05-08 01:12 | 42.95243 | -71.42976 | 16135 ft | 374 kts | 319° |
| 2026-05-08 01:12 | 42.97324 | -71.44842 | 16776 ft | 379 kts | 319° |
| 2026-05-08 01:12 | 42.99539 | -71.46843 | 17412 ft | 383 kts | 318° |
| 2026-05-08 01:12 | 43.01745 | -71.48845 | 18032 ft | 388 kts | 317° |
| 2026-05-08 01:13 | 43.04004 | -71.50893 | 18590 ft | 392 kts | 317° |
| 2026-05-08 01:13 | 43.06292 | -71.52962 | 19167 ft | 396 kts | 317° |
| 2026-05-08 01:13 | 43.08591 | -71.55045 | 19737 ft | 399 kts | 317° |
| 2026-05-08 01:13 | 43.10915 | -71.57158 | 20289 ft | 402 kts | 317° |
| 2026-05-08 01:14 | 43.13286 | -71.59314 | 20847 ft | 406 kts | 316° |
| 2026-05-08 01:14 | 43.15648 | -71.61462 | 21382 ft | 409 kts | 316° |
| 2026-05-08 01:14 | 43.18028 | -71.63628 | 21881 ft | 413 kts | 316° |
| 2026-05-08 01:14 | 43.20430 | -71.65817 | 22408 ft | 416 kts | 316° |
| 2026-05-08 01:15 | 43.22815 | -71.67994 | 22875 ft | 419 kts | 316° |
| 2026-05-08 01:15 | 43.25254 | -71.70220 | 23381 ft | 423 kts | 316° |
| 2026-05-08 01:15 | 43.27740 | -71.72492 | 23786 ft | 425 kts | 316° |
| 2026-05-08 01:15 | 43.30175 | -71.74718 | 24202 ft | 427 kts | 315° |
| 2026-05-08 01:16 | 43.32652 | -71.76987 | 24620 ft | 429 kts | 315° |
| 2026-05-08 01:16 | 43.35137 | -71.79265 | 25033 ft | 431 kts | 315° |
| 2026-05-08 01:16 | 43.37543 | -71.81474 | 25430 ft | 429 kts | 315° |
| 2026-05-08 01:16 | 43.40026 | -71.83749 | 25614 ft | 433 kts | 315° |
| 2026-05-08 01:17 | 43.42534 | -71.86064 | 25982 ft | 435 kts | 315° |
| 2026-05-08 01:17 | 43.45045 | -71.88375 | 26402 ft | 437 kts | 315° |
| 2026-05-08 01:17 | 43.47583 | -71.90709 | 26789 ft | 439 kts | 315° |
| 2026-05-08 01:17 | 43.50124 | -71.93052 | 27146 ft | 441 kts | 315° |
| 2026-05-08 01:18 | 43.52490 | -71.95239 | 27479 ft | 443 kts | 315° |
| 2026-05-08 01:18 | 43.55059 | -71.97614 | 27836 ft | 445 kts | 315° |
| 2026-05-08 01:18 | 43.57637 | -71.99998 | 28182 ft | 448 kts | 315° |
| 2026-05-08 01:18 | 43.60228 | -72.02397 | 28516 ft | 450 kts | 315° |
| 2026-05-08 01:19 | 43.62711 | -72.04699 | 28858 ft | 452 kts | 315° |
| 2026-05-08 01:19 | 43.65325 | -72.07125 | 29208 ft | 454 kts | 314° |
| 2026-05-08 01:19 | 43.67952 | -72.09567 | 29512 ft | 456 kts | 314° |
| 2026-05-08 01:19 | 43.70588 | -72.12017 | 29838 ft | 458 kts | 314° |
| 2026-05-08 01:20 | 43.73240 | -72.14487 | 30077 ft | 461 kts | 314° |
| 2026-05-08 01:20 | 43.75900 | -72.16966 | 30353 ft | 463 kts | 315° |
| 2026-05-08 01:20 | 43.78575 | -72.19461 | 30566 ft | 465 kts | 315° |
| 2026-05-08 01:20 | 43.81263 | -72.21972 | 30812 ft | 467 kts | 315° |
| 2026-05-08 01:21 | 43.83965 | -72.24499 | 31039 ft | 470 kts | 315° |
| 2026-05-08 01:21 | 43.89456 | -72.29650 | 31072 ft | 483 kts | 315° |
| 2026-05-08 01:21 | 43.92256 | -72.32274 | 31175 ft | 487 kts | 316° |
| 2026-05-08 01:22 | 43.95063 | -72.34902 | 31455 ft | 487 kts | 316° |
| 2026-05-08 01:22 | 43.97786 | -72.37461 | 31679 ft | 488 kts | 316° |
| 2026-05-08 01:22 | 44.00589 | -72.40104 | 31966 ft | 487 kts | 316° |
| 2026-05-08 01:22 | 44.03397 | -72.42754 | 32242 ft | 488 kts | 316° |
| 2026-05-08 01:23 | 44.06209 | -72.45406 | 32515 ft | 489 kts | 316° |
| 2026-05-08 01:23 | 44.09020 | -72.48058 | 32792 ft | 489 kts | 316° |
| 2026-05-08 01:23 | 44.11544 | -72.50447 | 33036 ft | 489 kts | 316° |
| 2026-05-08 01:23 | 44.14246 | -72.53009 | 33300 ft | 489 kts | 316° |
| 2026-05-08 01:24 | 44.16932 | -72.55554 | 33550 ft | 490 kts | 316° |
| 2026-05-08 01:24 | 44.19747 | -72.58223 | 33821 ft | 490 kts | 317° |
| 2026-05-08 01:24 | 44.22573 | -72.60911 | 33886 ft | 494 kts | 317° |
| 2026-05-08 01:25 | 44.28260 | -72.66321 | 33889 ft | 493 kts | 317° |
| 2026-05-08 01:25 | 44.33899 | -72.71703 | 33879 ft | 490 kts | 317° |
| 2026-05-08 01:26 | 44.39533 | -72.77094 | 33876 ft | 491 kts | 317° |
| 2026-05-08 01:26 | 44.45172 | -72.82497 | 33872 ft | 491 kts | 317° |
| 2026-05-08 01:27 | 44.50811 | -72.87919 | 33876 ft | 492 kts | 317° |
| 2026-05-08 01:27 | 44.56454 | -72.93353 | 33864 ft | 492 kts | 317° |
| 2026-05-08 01:28 | 44.62095 | -72.98800 | 33863 ft | 492 kts | 317° |
| 2026-05-08 01:28 | 44.67733 | -73.04257 | 33866 ft | 492 kts | 317° |
| 2026-05-08 01:29 | 44.73371 | -73.09728 | 33865 ft | 492 kts | 317° |
| 2026-05-08 01:29 | 44.79005 | -73.15207 | 33870 ft | 492 kts | 317° |
| 2026-05-08 01:30 | 44.84635 | -73.20697 | 33870 ft | 492 kts | 318° |
| 2026-05-08 01:30 | 44.90267 | -73.26201 | 33871 ft | 493 kts | 318° |
| 2026-05-08 01:31 | 44.95895 | -73.31714 | 33861 ft | 492 kts | 318° |
| 2026-05-08 01:31 | 45.00568 | -73.36303 | 33862 ft | 492 kts | 318° |
| 2026-05-08 01:32 | 45.06191 | -73.41836 | 33858 ft | 492 kts | 318° |
| 2026-05-08 01:32 | 45.11809 | -73.47378 | 33855 ft | 492 kts | 318° |
| 2026-05-08 01:33 | 45.17417 | -73.52924 | 33852 ft | 492 kts | 318° |
| 2026-05-08 01:33 | 45.23020 | -73.58479 | 33853 ft | 491 kts | 318° |
| 2026-05-08 01:34 | 45.28617 | -73.64040 | 33856 ft | 491 kts | 318° |
| 2026-05-08 01:34 | 45.34215 | -73.69617 | 33858 ft | 491 kts | 319° |
| 2026-05-08 01:35 | 45.39809 | -73.75204 | 33858 ft | 491 kts | 319° |
| 2026-05-08 01:35 | 45.45400 | -73.80801 | 33861 ft | 491 kts | 319° |
| 2026-05-08 01:36 | 45.50987 | -73.86407 | 33861 ft | 491 kts | 319° |
| 2026-05-08 01:36 | 45.56572 | -73.92027 | 33853 ft | 491 kts | 319° |
| 2026-05-08 01:37 | 45.62167 | -73.97630 | 33862 ft | 493 kts | 322° |
| 2026-05-08 01:37 | 45.67913 | -74.02986 | 33848 ft | 493 kts | 321° |
| 2026-05-08 01:38 | 45.73645 | -74.08365 | 33845 ft | 493 kts | 321° |
| 2026-05-08 01:38 | 45.79381 | -74.13740 | 33851 ft | 493 kts | 321° |
| 2026-05-08 01:39 | 45.85112 | -74.19140 | 33854 ft | 493 kts | 321° |
| 2026-05-08 01:39 | 45.90842 | -74.24541 | 33854 ft | 493 kts | 321° |
| 2026-05-08 01:40 | 45.96563 | -74.29955 | 33859 ft | 492 kts | 321° |
| 2026-05-08 01:40 | 46.02286 | -74.35379 | 33860 ft | 492 kts | 321° |
| 2026-05-08 01:41 | 46.08005 | -74.40817 | 33858 ft | 493 kts | 321° |
| 2026-05-08 01:41 | 46.13730 | -74.46272 | 33861 ft | 493 kts | 321° |
| 2026-05-08 01:42 | 46.19451 | -74.51738 | 33863 ft | 493 kts | 322° |
| 2026-05-08 01:42 | 46.25166 | -74.57211 | 33865 ft | 493 kts | 322° |
| 2026-05-08 01:43 | 46.30847 | -74.62668 | 33859 ft | 493 kts | 322° |
| 2026-05-08 01:43 | 46.36562 | -74.68168 | 33857 ft | 493 kts | 322° |
| 2026-05-08 01:44 | 46.42272 | -74.73680 | 33855 ft | 493 kts | 322° |
| 2026-05-08 01:44 | 46.47983 | -74.79205 | 33854 ft | 493 kts | 322° |
| 2026-05-08 01:45 | 46.53689 | -74.84742 | 33855 ft | 493 kts | 322° |
| 2026-05-08 01:45 | 46.59391 | -74.90287 | 33855 ft | 493 kts | 322° |
| 2026-05-08 01:46 | 46.65085 | -74.95839 | 33857 ft | 493 kts | 322° |
| 2026-05-08 01:46 | 46.70780 | -75.01407 | 33858 ft | 493 kts | 322° |
| 2026-05-08 01:47 | 46.76474 | -75.06988 | 33854 ft | 493 kts | 322° |
| 2026-05-08 01:47 | 46.82166 | -75.12581 | 33851 ft | 493 kts | 322° |
| 2026-05-08 01:48 | 46.90693 | -75.20989 | 33849 ft | 493 kts | 322° |
| 2026-05-08 01:48 | 46.96374 | -75.26607 | 33846 ft | 493 kts | 322° |
| 2026-05-08 01:49 | 47.02051 | -75.32237 | 33852 ft | 493 kts | 322° |
| 2026-05-08 01:49 | 47.07726 | -75.37880 | 33848 ft | 493 kts | 322° |
| 2026-05-08 01:50 | 47.13400 | -75.43536 | 33855 ft | 493 kts | 322° |
| 2026-05-08 01:50 | 47.19067 | -75.49200 | 33854 ft | 492 kts | 322° |
| 2026-05-08 01:51 | 47.24690 | -75.54835 | 33853 ft | 492 kts | 322° |
| 2026-05-08 01:51 | 47.30346 | -75.60518 | 33852 ft | 492 kts | 322° |
| 2026-05-08 01:52 | 47.36001 | -75.66216 | 33856 ft | 493 kts | 322° |
| 2026-05-08 01:52 | 47.41660 | -75.71931 | 33854 ft | 493 kts | 322° |
| 2026-05-08 01:53 | 47.47321 | -75.77664 | 33859 ft | 493 kts | 322° |
| 2026-05-08 01:53 | 47.52980 | -75.83410 | 33858 ft | 493 kts | 322° |
| 2026-05-08 01:54 | 47.58637 | -75.89171 | 33855 ft | 494 kts | 322° |
| 2026-05-08 01:54 | 47.64294 | -75.94946 | 33856 ft | 494 kts | 322° |
| 2026-05-08 01:55 | 47.69953 | -76.00740 | 33859 ft | 494 kts | 322° |
| 2026-05-08 01:55 | 47.75609 | -76.06544 | 33859 ft | 494 kts | 322° |
| 2026-05-08 01:56 | 47.81270 | -76.12370 | 33860 ft | 495 kts | 322° |
| 2026-05-08 01:56 | 47.86923 | -76.18204 | 33864 ft | 494 kts | 322° |
| 2026-05-08 01:57 | 47.92569 | -76.24047 | 33858 ft | 494 kts | 322° |
| 2026-05-08 01:57 | 47.98212 | -76.29902 | 33862 ft | 494 kts | 322° |
| 2026-05-08 01:58 | 48.03849 | -76.35765 | 33861 ft | 494 kts | 322° |
| 2026-05-08 01:58 | 48.09476 | -76.41636 | 33866 ft | 493 kts | 322° |
| 2026-05-08 01:59 | 48.15091 | -76.47510 | 33872 ft | 492 kts | 322° |
| 2026-05-08 01:59 | 48.20709 | -76.53402 | 33861 ft | 493 kts | 322° |
| 2026-05-08 02:00 | 48.26288 | -76.59270 | 33849 ft | 493 kts | 322° |
| 2026-05-08 02:00 | 48.31938 | -76.65229 | 33856 ft | 493 kts | 322° |
| 2026-05-08 02:01 | 48.37519 | -76.71130 | 33854 ft | 494 kts | 322° |
| 2026-05-08 02:01 | 48.43135 | -76.77085 | 33854 ft | 494 kts | 322° |
| 2026-05-08 02:02 | 48.48753 | -76.83060 | 33859 ft | 494 kts | 322° |
| 2026-05-08 02:02 | 48.54367 | -76.89046 | 33858 ft | 494 kts | 322° |
| 2026-05-08 02:03 | 48.59973 | -76.95041 | 33873 ft | 494 kts | 322° |
| 2026-05-08 02:03 | 48.65582 | -77.01054 | 33871 ft | 494 kts | 322° |
| 2026-05-08 02:04 | 48.71190 | -77.07085 | 33870 ft | 495 kts | 322° |
| 2026-05-08 02:04 | 48.76795 | -77.13128 | 33871 ft | 495 kts | 322° |
| 2026-05-08 02:05 | 48.82399 | -77.19188 | 33866 ft | 495 kts | 322° |
| 2026-05-08 02:05 | 48.88002 | -77.25263 | 33865 ft | 495 kts | 322° |
| 2026-05-08 02:06 | 48.93603 | -77.31353 | 33866 ft | 495 kts | 322° |
| 2026-05-08 02:06 | 48.99200 | -77.37449 | 33864 ft | 495 kts | 323° |
| 2026-05-08 02:07 | 49.05232 | -77.42579 | 33862 ft | 498 kts | 329° |
| 2026-05-08 02:07 | 49.11339 | -77.47552 | 33863 ft | 498 kts | 329° |
| 2026-05-08 02:08 | 49.17451 | -77.52542 | 33859 ft | 498 kts | 329° |
| 2026-05-08 02:08 | 49.23546 | -77.57532 | 33854 ft | 497 kts | 329° |
| 2026-05-08 02:09 | 49.29640 | -77.62537 | 33851 ft | 497 kts | 329° |
| 2026-05-08 02:09 | 49.35733 | -77.67553 | 33855 ft | 497 kts | 329° |
| 2026-05-08 02:10 | 49.41824 | -77.72583 | 33847 ft | 498 kts | 329° |
| 2026-05-08 02:10 | 49.47921 | -77.77632 | 33839 ft | 499 kts | 329° |
| 2026-05-08 02:11 | 49.54027 | -77.82703 | 33827 ft | 498 kts | 329° |
| 2026-05-08 02:11 | 49.60122 | -77.87780 | 33812 ft | 498 kts | 329° |
| 2026-05-08 02:12 | 49.66214 | -77.92868 | 33812 ft | 498 kts | 329° |
| 2026-05-08 02:12 | 49.72299 | -77.97965 | 33809 ft | 498 kts | 329° |
| 2026-05-08 02:13 | 49.78385 | -78.03077 | 33815 ft | 498 kts | 329° |
| 2026-05-08 02:13 | 49.84468 | -78.08202 | 33818 ft | 498 kts | 329° |
| 2026-05-08 02:14 | 49.90556 | -78.13345 | 33826 ft | 498 kts | 329° |
| 2026-05-08 02:14 | 49.96637 | -78.18499 | 33833 ft | 498 kts | 329° |
| 2026-05-08 02:15 | 50.02717 | -78.23666 | 33840 ft | 498 kts | 329° |
| 2026-05-08 02:15 | 50.08788 | -78.28841 | 33832 ft | 498 kts | 329° |
| 2026-05-08 02:16 | 50.14816 | -78.33993 | 33833 ft | 497 kts | 329° |
| 2026-05-08 02:16 | 50.20877 | -78.39189 | 33828 ft | 497 kts | 329° |
| 2026-05-08 02:17 | 50.26939 | -78.44401 | 33829 ft | 497 kts | 329° |
| 2026-05-08 02:17 | 50.33004 | -78.49631 | 33825 ft | 498 kts | 329° |
| 2026-05-08 02:18 | 50.38084 | -78.54023 | 33818 ft | 498 kts | 329° |
| 2026-05-08 02:18 | 50.44103 | -78.59242 | 33817 ft | 498 kts | 329° |
| 2026-05-08 02:19 | 50.50161 | -78.64509 | 33816 ft | 498 kts | 329° |
| 2026-05-08 02:19 | 50.56218 | -78.69792 | 33815 ft | 498 kts | 329° |
| 2026-05-08 02:20 | 50.62277 | -78.75091 | 33812 ft | 498 kts | 329° |
| 2026-05-08 02:20 | 50.68334 | -78.80406 | 33811 ft | 498 kts | 329° |
| 2026-05-08 02:21 | 50.74387 | -78.85731 | 33806 ft | 498 kts | 329° |
| 2026-05-08 02:21 | 50.80439 | -78.91073 | 33805 ft | 498 kts | 329° |
| 2026-05-08 02:22 | 50.86488 | -78.96427 | 33804 ft | 498 kts | 329° |
| 2026-05-08 02:22 | 50.92535 | -79.01796 | 33801 ft | 499 kts | 329° |
| 2026-05-08 02:23 | 50.98580 | -79.07180 | 33800 ft | 498 kts | 329° |
| 2026-05-08 02:23 | 51.04620 | -79.12575 | 33804 ft | 498 kts | 329° |
| 2026-05-08 02:24 | 51.10660 | -79.17986 | 33798 ft | 498 kts | 329° |
| 2026-05-08 02:24 | 51.16699 | -79.23413 | 33799 ft | 499 kts | 329° |
| 2026-05-08 02:25 | 51.22742 | -79.28860 | 33801 ft | 499 kts | 329° |
| 2026-05-08 02:25 | 51.28782 | -79.34321 | 33798 ft | 499 kts | 328° |
| 2026-05-08 02:26 | 51.34823 | -79.39800 | 33800 ft | 499 kts | 328° |
| 2026-05-08 02:26 | 51.40861 | -79.45292 | 33796 ft | 500 kts | 328° |
| 2026-05-08 02:27 | 51.46906 | -79.50808 | 33796 ft | 500 kts | 328° |
| 2026-05-08 02:27 | 51.52956 | -79.56346 | 33792 ft | 501 kts | 328° |
| 2026-05-08 02:28 | 51.59009 | -79.61903 | 33781 ft | 500 kts | 328° |
| 2026-05-08 02:28 | 51.65050 | -79.67467 | 33782 ft | 500 kts | 328° |
| 2026-05-08 02:29 | 51.71044 | -79.73004 | 33787 ft | 500 kts | 328° |
| 2026-05-08 02:29 | 51.77072 | -79.78590 | 33782 ft | 499 kts | 328° |
| 2026-05-08 02:30 | 51.83098 | -79.84192 | 33793 ft | 499 kts | 328° |
| 2026-05-08 02:30 | 51.89114 | -79.89802 | 33783 ft | 500 kts | 328° |
| 2026-05-08 02:31 | 51.95142 | -79.95440 | 33783 ft | 500 kts | 328° |
| 2026-05-08 02:31 | 52.00862 | -80.01756 | 33806 ft | 497 kts | 314° |
| 2026-05-08 02:32 | 52.05503 | -80.10066 | 33795 ft | 497 kts | 310° |
| 2026-05-08 02:32 | 52.10069 | -80.18502 | 33786 ft | 497 kts | 310° |
| 2026-05-08 02:33 | 52.14642 | -80.26927 | 33789 ft | 496 kts | 310° |
| 2026-05-08 02:33 | 52.19197 | -80.35380 | 33781 ft | 496 kts | 310° |
| 2026-05-08 02:34 | 52.23750 | -80.43837 | 33781 ft | 496 kts | 310° |
| 2026-05-08 02:34 | 52.28290 | -80.52309 | 33789 ft | 496 kts | 310° |
| 2026-05-08 02:35 | 52.32826 | -80.60799 | 33787 ft | 496 kts | 310° |
| 2026-05-08 02:35 | 52.37359 | -80.69313 | 33787 ft | 496 kts | 310° |
| 2026-05-08 02:36 | 52.41889 | -80.77850 | 33783 ft | 497 kts | 310° |
| 2026-05-08 02:36 | 52.46381 | -80.86345 | 33782 ft | 496 kts | 310° |
| 2026-05-08 02:37 | 52.50893 | -80.94906 | 33778 ft | 496 kts | 310° |
| 2026-05-08 02:37 | 52.55398 | -81.03484 | 33783 ft | 496 kts | 310° |
| 2026-05-08 02:38 | 52.59900 | -81.12085 | 33777 ft | 497 kts | 309° |
| 2026-05-08 02:38 | 52.64404 | -81.20719 | 33776 ft | 497 kts | 309° |
| 2026-05-08 02:39 | 52.68901 | -81.29371 | 33775 ft | 497 kts | 309° |
| 2026-05-08 02:39 | 52.73397 | -81.38050 | 33780 ft | 498 kts | 309° |
| 2026-05-08 02:40 | 52.77884 | -81.46742 | 33776 ft | 497 kts | 309° |
| 2026-05-08 02:40 | 52.82365 | -81.55453 | 33777 ft | 498 kts | 309° |
| 2026-05-08 02:41 | 52.86845 | -81.64191 | 33776 ft | 497 kts | 309° |
| 2026-05-08 02:41 | 52.91316 | -81.72943 | 33773 ft | 498 kts | 309° |
| 2026-05-08 02:42 | 52.95778 | -81.81709 | 33770 ft | 497 kts | 309° |
| 2026-05-08 02:42 | 53.00235 | -81.90495 | 33770 ft | 498 kts | 309° |
| 2026-05-08 02:43 | 53.04689 | -81.99307 | 33773 ft | 498 kts | 309° |
| 2026-05-08 02:43 | 53.09140 | -82.08142 | 33775 ft | 498 kts | 309° |
| 2026-05-08 02:44 | 53.13582 | -82.16992 | 33775 ft | 498 kts | 309° |
| 2026-05-08 02:44 | 53.18014 | -82.25854 | 33774 ft | 498 kts | 309° |
| 2026-05-08 02:45 | 53.22443 | -82.34742 | 33775 ft | 498 kts | 309° |
| 2026-05-08 02:45 | 53.26867 | -82.43650 | 33774 ft | 498 kts | 309° |
| 2026-05-08 02:46 | 53.31254 | -82.52515 | 33768 ft | 498 kts | 309° |
| 2026-05-08 02:46 | 53.35658 | -82.61447 | 33772 ft | 498 kts | 309° |
| 2026-05-08 02:47 | 53.40067 | -82.70420 | 33769 ft | 498 kts | 308° |
| 2026-05-08 02:47 | 53.44458 | -82.79389 | 33772 ft | 498 kts | 308° |
| 2026-05-08 02:48 | 53.48842 | -82.88378 | 33772 ft | 497 kts | 308° |
| 2026-05-08 02:48 | 53.53217 | -82.97379 | 33772 ft | 497 kts | 308° |
| 2026-05-08 02:49 | 53.57586 | -83.06401 | 33775 ft | 498 kts | 308° |
| 2026-05-08 02:49 | 53.61953 | -83.15450 | 33776 ft | 498 kts | 308° |
| 2026-05-08 02:50 | 53.66312 | -83.24518 | 33773 ft | 497 kts | 308° |
| 2026-05-08 02:50 | 53.70655 | -83.33584 | 33774 ft | 497 kts | 308° |
| 2026-05-08 02:51 | 53.74996 | -83.42679 | 33762 ft | 498 kts | 308° |
| 2026-05-08 02:51 | 53.79336 | -83.51806 | 33766 ft | 499 kts | 308° |
| 2026-05-08 02:52 | 53.83678 | -83.60970 | 33767 ft | 499 kts | 308° |
| 2026-05-08 02:52 | 53.88011 | -83.70149 | 33773 ft | 498 kts | 308° |
| 2026-05-08 02:53 | 53.92331 | -83.79334 | 33764 ft | 498 kts | 308° |
| 2026-05-08 02:53 | 53.96614 | -83.88474 | 33762 ft | 498 kts | 308° |
| 2026-05-08 02:54 | 54.00920 | -83.97697 | 33768 ft | 498 kts | 308° |
| 2026-05-08 02:54 | 54.05216 | -84.06933 | 33768 ft | 497 kts | 308° |
| 2026-05-08 02:55 | 54.11644 | -84.20817 | 33758 ft | 498 kts | 308° |
| 2026-05-08 02:56 | 54.15927 | -84.30112 | 33756 ft | 498 kts | 308° |
| 2026-05-08 02:56 | 54.20201 | -84.39421 | 33755 ft | 498 kts | 308° |
| 2026-05-08 02:57 | 54.24468 | -84.48749 | 33759 ft | 498 kts | 308° |
| 2026-05-08 02:57 | 54.28724 | -84.58090 | 33756 ft | 497 kts | 308° |
| 2026-05-08 02:58 | 54.32968 | -84.67438 | 33746 ft | 497 kts | 307° |
| 2026-05-08 02:58 | 54.37208 | -84.76815 | 33748 ft | 497 kts | 307° |
| 2026-05-08 02:59 | 54.41436 | -84.86199 | 33745 ft | 497 kts | 307° |
| 2026-05-08 02:59 | 54.45656 | -84.95599 | 33733 ft | 497 kts | 307° |
| 2026-05-08 03:00 | 54.49868 | -85.05021 | 33735 ft | 497 kts | 307° |
| 2026-05-08 03:00 | 54.54072 | -85.14457 | 33744 ft | 497 kts | 307° |
| 2026-05-08 03:01 | 54.58273 | -85.23924 | 33741 ft | 497 kts | 307° |
| 2026-05-08 03:01 | 54.62457 | -85.33389 | 33735 ft | 496 kts | 307° |
| 2026-05-08 03:02 | 54.66633 | -85.42872 | 33721 ft | 496 kts | 307° |
| 2026-05-08 03:02 | 54.70805 | -85.52383 | 33730 ft | 496 kts | 307° |
| 2026-05-08 03:03 | 54.74969 | -85.61911 | 33714 ft | 497 kts | 307° |
| 2026-05-08 03:03 | 54.79127 | -85.71463 | 33714 ft | 497 kts | 307° |
| 2026-05-08 03:04 | 54.83281 | -85.81042 | 33713 ft | 497 kts | 307° |
| 2026-05-08 03:04 | 54.87397 | -85.90570 | 33711 ft | 497 kts | 307° |
| 2026-05-08 03:05 | 54.91533 | -86.00182 | 33706 ft | 497 kts | 307° |
| 2026-05-08 03:05 | 54.95662 | -86.09816 | 33707 ft | 497 kts | 307° |
| 2026-05-08 03:06 | 54.99783 | -86.19467 | 33700 ft | 497 kts | 307° |
| 2026-05-08 03:06 | 55.03893 | -86.29132 | 33701 ft | 496 kts | 307° |
| 2026-05-08 03:07 | 55.07330 | -86.37243 | 33697 ft | 496 kts | 306° |
| 2026-05-08 03:07 | 55.11423 | -86.46935 | 33696 ft | 496 kts | 306° |
| 2026-05-08 03:08 | 55.15485 | -86.56593 | 33691 ft | 497 kts | 306° |
| 2026-05-08 03:08 | 55.19566 | -86.66336 | 33695 ft | 496 kts | 306° |
| 2026-05-08 03:09 | 55.23632 | -86.76080 | 33687 ft | 495 kts | 306° |
| 2026-05-08 03:09 | 55.27686 | -86.85833 | 33683 ft | 495 kts | 306° |
| 2026-05-08 03:10 | 55.31735 | -86.95612 | 33686 ft | 495 kts | 306° |
| 2026-05-08 03:10 | 55.35780 | -87.05424 | 33680 ft | 496 kts | 306° |
| 2026-05-08 03:11 | 55.39820 | -87.15259 | 33683 ft | 496 kts | 306° |
| 2026-05-08 03:11 | 55.43848 | -87.25106 | 33681 ft | 495 kts | 306° |
| 2026-05-08 03:12 | 55.47868 | -87.34972 | 33682 ft | 496 kts | 306° |
| 2026-05-08 03:12 | 55.51886 | -87.44876 | 33688 ft | 496 kts | 306° |
| 2026-05-08 03:13 | 55.55894 | -87.54792 | 33699 ft | 496 kts | 306° |
| 2026-05-08 03:13 | 55.59893 | -87.64725 | 33713 ft | 496 kts | 306° |
| 2026-05-08 03:14 | 55.63884 | -87.74680 | 33710 ft | 496 kts | 306° |
| 2026-05-08 03:14 | 55.67862 | -87.84644 | 33707 ft | 495 kts | 306° |
| 2026-05-08 03:15 | 55.71830 | -87.94622 | 33712 ft | 495 kts | 306° |
| 2026-05-08 03:15 | 55.75784 | -88.04606 | 33699 ft | 495 kts | 306° |
| 2026-05-08 03:16 | 55.79733 | -88.14617 | 33698 ft | 495 kts | 306° |
| 2026-05-08 03:16 | 55.83673 | -88.24647 | 33697 ft | 495 kts | 306° |
| 2026-05-08 03:17 | 55.87582 | -88.34639 | 33691 ft | 495 kts | 306° |
| 2026-05-08 03:17 | 55.91507 | -88.44714 | 33687 ft | 495 kts | 306° |
| 2026-05-08 03:18 | 55.95426 | -88.54813 | 33682 ft | 495 kts | 305° |
| 2026-05-08 03:18 | 55.99333 | -88.64925 | 33686 ft | 495 kts | 305° |
| 2026-05-08 03:19 | 56.03227 | -88.75043 | 33677 ft | 494 kts | 305° |
| 2026-05-08 03:19 | 56.07108 | -88.85172 | 33677 ft | 494 kts | 305° |
| 2026-05-08 03:20 | 56.10981 | -88.95319 | 33668 ft | 493 kts | 305° |
| 2026-05-08 03:20 | 56.14842 | -89.05478 | 33671 ft | 493 kts | 305° |
| 2026-05-08 03:21 | 56.18689 | -89.15643 | 33660 ft | 492 kts | 305° |
| 2026-05-08 03:21 | 56.22525 | -89.25822 | 33663 ft | 492 kts | 305° |
| 2026-05-08 03:22 | 56.26353 | -89.36021 | 33651 ft | 492 kts | 305° |
| 2026-05-08 03:22 | 56.30169 | -89.46232 | 33658 ft | 491 kts | 305° |
| 2026-05-08 03:23 | 56.33973 | -89.56453 | 33653 ft | 491 kts | 305° |
| 2026-05-08 03:23 | 56.37769 | -89.66694 | 33662 ft | 491 kts | 304° |
| 2026-05-08 03:24 | 56.41554 | -89.76949 | 33664 ft | 490 kts | 304° |
| 2026-05-08 03:24 | 56.45323 | -89.87206 | 33658 ft | 490 kts | 304° |
| 2026-05-08 03:25 | 56.49083 | -89.97479 | 33656 ft | 490 kts | 304° |
| 2026-05-08 03:25 | 56.53140 | -90.07343 | 33666 ft | 488 kts | 309° |
| 2026-05-08 03:26 | 56.57293 | -90.17074 | 33666 ft | 488 kts | 309° |
| 2026-05-08 03:26 | 56.61431 | -90.26831 | 33659 ft | 487 kts | 309° |
| 2026-05-08 03:27 | 56.65555 | -90.36581 | 33657 ft | 487 kts | 309° |
| 2026-05-08 03:27 | 56.69638 | -90.46282 | 33656 ft | 486 kts | 308° |
| 2026-05-08 03:28 | 56.73737 | -90.56052 | 33655 ft | 485 kts | 308° |
| 2026-05-08 03:28 | 56.77822 | -90.65834 | 33654 ft | 485 kts | 308° |
| 2026-05-08 03:29 | 56.81897 | -90.75629 | 33654 ft | 485 kts | 308° |
| 2026-05-08 03:29 | 56.85963 | -90.85444 | 33656 ft | 484 kts | 308° |
| 2026-05-08 03:30 | 56.92051 | -91.00213 | 33657 ft | 485 kts | 308° |
| 2026-05-08 03:31 | 57.00152 | -91.20006 | 33654 ft | 485 kts | 308° |
| 2026-05-08 03:32 | 57.06203 | -91.34899 | 33655 ft | 485 kts | 308° |
| 2026-05-08 03:32 | 57.10226 | -91.44851 | 33652 ft | 485 kts | 308° |
| 2026-05-08 03:33 | 57.14238 | -91.54817 | 33654 ft | 484 kts | 308° |
| 2026-05-08 03:33 | 57.18242 | -91.64804 | 33652 ft | 484 kts | 308° |
| 2026-05-08 03:34 | 57.22233 | -91.74801 | 33647 ft | 484 kts | 308° |
| 2026-05-08 03:34 | 57.26217 | -91.84821 | 33651 ft | 484 kts | 308° |
| 2026-05-08 03:35 | 57.30191 | -91.94857 | 33653 ft | 484 kts | 308° |
| 2026-05-08 03:35 | 57.34156 | -92.04912 | 33652 ft | 484 kts | 308° |
| 2026-05-08 03:36 | 57.38114 | -92.14994 | 33648 ft | 484 kts | 308° |
| 2026-05-08 03:36 | 57.42066 | -92.25102 | 33653 ft | 484 kts | 307° |
| 2026-05-08 03:37 | 57.46010 | -92.35229 | 33648 ft | 484 kts | 307° |
| 2026-05-08 03:37 | 57.49944 | -92.45378 | 33650 ft | 484 kts | 307° |
| 2026-05-08 03:38 | 57.53867 | -92.55537 | 33649 ft | 482 kts | 307° |
| 2026-05-08 03:38 | 57.57747 | -92.65630 | 33652 ft | 483 kts | 307° |
| 2026-05-08 03:39 | 57.61651 | -92.75829 | 33652 ft | 483 kts | 307° |
| 2026-05-08 03:39 | 57.65551 | -92.86060 | 33666 ft | 484 kts | 307° |
| 2026-05-08 03:40 | 57.69447 | -92.96323 | 33663 ft | 484 kts | 307° |
| 2026-05-08 03:40 | 57.73333 | -93.06603 | 33660 ft | 484 kts | 307° |
| 2026-05-08 03:41 | 57.77215 | -93.16919 | 33656 ft | 485 kts | 307° |
| 2026-05-08 03:41 | 57.81091 | -93.27264 | 33661 ft | 485 kts | 307° |
| 2026-05-08 03:42 | 57.84961 | -93.37635 | 33665 ft | 485 kts | 307° |
| 2026-05-08 03:42 | 57.88824 | -93.48033 | 33666 ft | 486 kts | 307° |
| 2026-05-08 03:43 | 57.92681 | -93.58463 | 33667 ft | 486 kts | 307° |
| 2026-05-08 03:43 | 57.96530 | -93.68914 | 33674 ft | 486 kts | 306° |
| 2026-05-08 03:44 | 58.00370 | -93.79387 | 33675 ft | 486 kts | 306° |
| 2026-05-08 03:44 | 58.04204 | -93.89891 | 33684 ft | 486 kts | 306° |
| 2026-05-08 03:45 | 58.08030 | -94.00417 | 33681 ft | 486 kts | 306° |
| 2026-05-08 03:45 | 58.11849 | -94.10973 | 33685 ft | 487 kts | 306° |
| 2026-05-08 03:46 | 58.15637 | -94.21489 | 33692 ft | 487 kts | 306° |
| 2026-05-08 03:46 | 58.19471 | -94.32178 | 33691 ft | 487 kts | 306° |
| 2026-05-08 03:47 | 58.23268 | -94.42814 | 33690 ft | 487 kts | 306° |
| 2026-05-08 03:47 | 58.27057 | -94.53472 | 33693 ft | 487 kts | 306° |
| 2026-05-08 03:48 | 58.30812 | -94.64084 | 33697 ft | 487 kts | 306° |
| 2026-05-08 03:48 | 58.34589 | -94.74806 | 33702 ft | 488 kts | 306° |
| 2026-05-08 03:49 | 58.38359 | -94.85557 | 33702 ft | 488 kts | 306° |
| 2026-05-08 03:49 | 58.42123 | -94.96339 | 33704 ft | 488 kts | 306° |
| 2026-05-08 03:50 | 58.45883 | -95.07159 | 33708 ft | 489 kts | 306° |
| 2026-05-08 03:50 | 58.49634 | -95.18001 | 33717 ft | 489 kts | 306° |
| 2026-05-08 03:51 | 58.53375 | -95.28864 | 33719 ft | 490 kts | 306° |
| 2026-05-08 03:51 | 58.57110 | -95.39763 | 33717 ft | 489 kts | 306° |
| 2026-05-08 03:52 | 58.60834 | -95.50678 | 33727 ft | 489 kts | 306° |
| 2026-05-08 03:52 | 58.64546 | -95.61606 | 33727 ft | 488 kts | 306° |
| 2026-05-08 03:53 | 58.68244 | -95.72545 | 33740 ft | 488 kts | 306° |
| 2026-05-08 03:53 | 58.71308 | -95.81648 | 33737 ft | 487 kts | 305° |
| 2026-05-08 03:54 | 58.74984 | -95.92613 | 33745 ft | 488 kts | 305° |
| 2026-05-08 03:54 | 58.78656 | -96.03620 | 33747 ft | 489 kts | 305° |
| 2026-05-08 03:55 | 58.82322 | -96.14658 | 33752 ft | 489 kts | 305° |
| 2026-05-08 03:55 | 58.85975 | -96.25712 | 33751 ft | 488 kts | 305° |
| 2026-05-08 03:56 | 58.89618 | -96.36783 | 33762 ft | 488 kts | 305° |
| 2026-05-08 03:56 | 58.93256 | -96.47896 | 33763 ft | 488 kts | 305° |
| 2026-05-08 03:57 | 58.96880 | -96.59015 | 33770 ft | 488 kts | 305° |
| 2026-05-08 03:57 | 59.00489 | -96.70142 | 33775 ft | 487 kts | 305° |
| 2026-05-08 03:58 | 59.04092 | -96.81304 | 33785 ft | 488 kts | 305° |
| 2026-05-08 03:58 | 59.07695 | -96.92516 | 33785 ft | 490 kts | 304° |
| 2026-05-08 03:59 | 59.11294 | -97.03774 | 33809 ft | 490 kts | 304° |
| 2026-05-08 03:59 | 59.14883 | -97.15054 | 33805 ft | 490 kts | 304° |
| 2026-05-08 04:00 | 59.18464 | -97.26360 | 33798 ft | 490 kts | 304° |
| 2026-05-08 04:00 | 59.22009 | -97.37609 | 33806 ft | 490 kts | 304° |
| 2026-05-08 04:01 | 59.25569 | -97.48962 | 33807 ft | 490 kts | 304° |
| 2026-05-08 04:01 | 59.29120 | -97.60339 | 33819 ft | 490 kts | 304° |
| 2026-05-08 04:02 | 59.32657 | -97.71728 | 33817 ft | 489 kts | 304° |
| 2026-05-08 04:02 | 59.36185 | -97.83140 | 33824 ft | 490 kts | 304° |
| 2026-05-08 04:03 | 59.39703 | -97.94581 | 33834 ft | 490 kts | 304° |
| 2026-05-08 04:03 | 59.44952 | -98.11755 | 33843 ft | 488 kts | 304° |
| 2026-05-08 04:04 | 59.48432 | -98.23210 | 33840 ft | 488 kts | 303° |
| 2026-05-08 04:04 | 59.51902 | -98.34689 | 33846 ft | 488 kts | 303° |
| 2026-05-08 04:05 | 59.55358 | -98.46179 | 33853 ft | 487 kts | 303° |
| 2026-05-08 04:05 | 59.58803 | -98.57688 | 33859 ft | 487 kts | 303° |
| 2026-05-08 04:06 | 59.62245 | -98.69247 | 33861 ft | 489 kts | 303° |
| 2026-05-08 04:06 | 59.65681 | -98.80841 | 33875 ft | 489 kts | 303° |
| 2026-05-08 04:07 | 59.69106 | -98.92459 | 33871 ft | 489 kts | 303° |
| 2026-05-08 04:07 | 59.72521 | -99.04102 | 33878 ft | 489 kts | 303° |
| 2026-05-08 04:08 | 59.75924 | -99.15762 | 33882 ft | 488 kts | 303° |